Time;durP1;ratioP1;P1;durP2;ratioP2;P2;SDS_P1;SDS_P2;PMS_P1;PMS_P2;Temp;Humidity;BMP_temperature;BMP_pressure;BME280_temperature;BME280_humidity;BME280_pressure;Samples;Min_cycle;Max_cycle;Signal;HPM_P1;HPM_P2
2023/08/01 00:01:22;;;;;;;7.43;5.78;;;;;;;25.17;50.06;98301.34;5053763;28;20078;-81
2023/08/01 00:03:47;;;;;;;7.15;5.72;;;;;;;25.11;50.36;98292.34;5072130;28;20043;-81
2023/08/01 00:06:13;;;;;;;9.57;5.85;;;;;;;25.13;50.10;98294.81;5053916;28;20049;-81
2023/08/01 00:08:38;;;;;;;7.35;5.60;;;;;;;25.09;50.40;98287.25;5087803;28;20028;-81
2023/08/01 00:11:04;;;;;;;8.63;5.43;;;;;;;25.06;50.14;98294.88;5072506;28;20031;-81
2023/08/01 00:13:29;;;;;;;6.00;5.22;;;;;;;25.04;50.30;98286.28;5073897;28;20524;-79
2023/08/01 00:15:55;;;;;;;7.32;4.75;;;;;;;25.03;50.25;98289.97;5074436;28;20149;-79
2023/08/01 00:18:20;;;;;;;5.40;4.50;;;;;;;24.96;50.00;98278.56;5091179;28;20500;-79
2023/08/01 00:20:46;;;;;;;8.57;4.53;;;;;;;24.95;49.98;98276.94;5091296;28;20029;-79
2023/08/01 00:23:11;;;;;;;7.32;4.22;;;;;;;24.90;49.89;98285.59;5091336;28;20407;-79
2023/08/01 00:25:37;;;;;;;4.72;3.72;;;;;;;24.89;49.91;98282.13;5074002;28;20047;-79
2023/08/01 00:28:02;;;;;;;6.43;3.78;;;;;;;24.90;49.75;98288.28;5091408;28;20036;-80
2023/08/01 00:30:28;;;;;;;5.00;3.53;;;;;;;24.85;49.38;98293.47;5073456;28;20481;-80
2023/08/01 00:32:53;;;;;;;9.93;4.07;;;;;;;24.55;49.63;98296.78;5073579;28;20495;-80
2023/08/01 00:35:19;;;;;;;8.07;5.32;;;;;;;24.29;51.29;98289.78;5074211;28;20070;-79
2023/08/01 00:37:44;;;;;;;6.82;5.43;;;;;;;24.17;51.73;98292.34;5074971;28;20040;-80
2023/08/01 00:40:11;;;;;;;5.68;5.15;;;;;;;24.22;51.64;98291.72;5090493;28;20044;-81
2023/08/01 00:42:37;;;;;;;6.20;5.47;;;;;;;24.31;51.48;98282.41;5072806;28;20032;-81
2023/08/01 00:45:04;;;;;;;6.10;5.50;;;;;;;24.43;51.11;98274.50;5073672;28;20097;-80
2023/08/01 00:47:29;;;;;;;6.40;5.05;;;;;;;24.49;51.01;98273.63;5073518;28;20025;-81
2023/08/01 00:49:55;;;;;;;9.98;5.18;;;;;;;24.49;50.87;98257.63;5073927;28;20028;-80
2023/08/01 00:52:20;;;;;;;8.32;4.90;;;;;;;24.56;50.90;98266.41;5074007;28;20384;-80
2023/08/01 00:54:46;;;;;;;7.72;4.35;;;;;;;24.59;50.88;98267.81;5056807;28;20048;-79
2023/08/01 00:57:11;;;;;;;7.85;4.82;;;;;;;24.59;50.51;98274.00;5073243;28;20041;-80
2023/08/01 00:59:37;;;;;;;9.30;4.63;;;;;;;24.64;50.44;98278.69;5073195;28;20045;-80
2023/08/01 01:02:02;;;;;;;6.30;4.80;;;;;;;24.65;50.31;98277.63;5073552;28;20086;-81
2023/08/01 01:04:28;;;;;;;5.78;4.72;;;;;;;24.66;50.37;98276.59;5056204;28;20095;-79
2023/08/01 01:07:02;;;;;;;7.55;5.05;;;;;;;24.66;50.21;98268.59;5056249;28;20040;-80
2023/08/01 01:09:28;;;;;;;8.30;4.38;;;;;;;24.62;50.19;98270.91;5056800;28;20040;-80
2023/08/01 01:11:54;;;;;;;6.90;4.25;;;;;;;24.64;49.74;98282.16;5073558;28;20036;-80
2023/08/01 01:14:19;;;;;;;5.40;4.35;;;;;;;24.63;50.01;98283.19;5074625;28;20028;-80
2023/08/01 01:16:45;;;;;;;6.60;4.05;;;;;;;24.62;50.06;98273.56;5074905;28;20589;-81
2023/08/01 01:19:10;;;;;;;5.45;4.10;;;;;;;24.60;49.66;98280.94;5074765;28;20033;-82
2023/08/01 01:21:37;;;;;;;5.43;3.65;;;;;;;24.59;49.74;98270.50;5072439;28;20040;-81
2023/08/01 01:24:06;;;;;;;5.20;3.42;;;;;;;24.57;49.54;98270.72;5056244;28;20122;-82
2023/08/01 01:26:33;;;;;;;3.97;3.42;;;;;;;24.54;49.53;98269.28;5056701;28;20025;-82
2023/08/01 01:28:58;;;;;;;5.20;3.15;;;;;;;24.56;49.42;98261.91;5073257;28;20031;-82
2023/08/01 01:31:24;;;;;;;8.13;3.30;;;;;;;24.56;49.29;98266.41;5072865;28;20032;-82
2023/08/01 01:33:49;;;;;;;4.20;3.15;;;;;;;24.52;49.74;98268.66;5089520;28;20107;-83
2023/08/01 01:36:15;;;;;;;8.23;3.75;;;;;;;24.42;49.82;98267.56;5073162;28;20029;-76
2023/08/01 01:38:40;;;;;;;27.85;3.92;;;;;;;24.53;50.29;98272.19;5073993;28;20380;-82
2023/08/01 01:41:06;;;;;;;11.82;3.47;;;;;;;24.66;49.94;98272.06;5055910;28;20028;-76
2023/08/01 01:43:31;;;;;;;8.20;3.80;;;;;;;24.57;49.58;98262.72;5089347;28;20033;-75
2023/08/01 01:45:57;;;;;;;6.82;3.45;;;;;;;24.51;49.46;98260.88;5072270;28;20032;-76
2023/08/01 01:48:22;;;;;;;5.20;3.53;;;;;;;24.47;49.75;98265.03;5072310;28;20028;-77
2023/08/01 01:50:48;;;;;;;5.60;3.78;;;;;;;24.42;49.99;98264.88;5073466;28;20377;-77
2023/08/01 01:53:13;;;;;;;4.80;3.63;;;;;;;24.34;50.22;98253.44;5056157;28;20043;-76
2023/08/01 01:55:39;;;;;;;8.30;3.58;;;;;;;24.38;50.02;98259.16;5072295;28;20484;-77
2023/08/01 01:58:06;;;;;;;7.28;3.85;;;;;;;24.34;50.24;98258.78;5072216;28;20398;-77
2023/08/01 02:00:31;;;;;;;3.53;3.22;;;;;;;24.30;50.18;98248.75;5073576;28;20376;-77
2023/08/01 02:02:57;;;;;;;4.72;3.20;;;;;;;24.31;49.93;98258.41;5055415;28;20045;-77
2023/08/01 02:05:22;;;;;;;7.28;2.90;;;;;;;24.24;49.81;98255.78;5071918;28;20088;-77
2023/08/01 02:07:47;;;;;;;7.22;3.10;;;;;;;24.22;49.88;98263.19;5072391;28;20462;-77
2023/08/01 02:10:13;;;;;;;4.20;3.10;;;;;;;24.19;49.87;98268.94;5071871;28;20036;-77
2023/08/01 02:12:38;;;;;;;5.43;2.85;;;;;;;24.18;49.69;98267.34;5088339;28;20095;-76
2023/08/01 02:15:05;;;;;;;3.50;2.53;;;;;;;24.14;49.79;98274.13;5073109;28;20479;-76
2023/08/01 02:17:31;;;;;;;5.18;2.92;;;;;;;24.12;49.86;98261.00;5071611;28;20387;-76
2023/08/01 02:19:56;;;;;;;3.00;2.53;;;;;;;24.09;49.90;98266.75;5071860;28;20028;-77
2023/08/01 02:22:24;;;;;;;4.07;2.30;;;;;;;24.05;50.10;98273.53;5073004;28;20416;-77
2023/08/01 02:24:50;;;;;;;6.35;2.45;;;;;;;24.06;49.99;98277.06;5071938;28;20037;-77
2023/08/01 02:27:15;;;;;;;5.30;2.75;;;;;;;24.05;49.95;98275.41;5055189;28;20503;-77
2023/08/01 02:29:41;;;;;;;4.07;2.35;;;;;;;24.06;50.24;98279.72;5088675;28;20028;-77
2023/08/01 02:32:07;;;;;;;4.05;2.22;;;;;;;24.03;50.07;98281.75;5071505;28;20036;-77
2023/08/01 02:34:32;;;;;;;4.68;2.70;;;;;;;23.99;50.04;98283.25;5071763;28;20028;-77
2023/08/01 02:36:58;;;;;;;3.58;2.53;;;;;;;23.97;50.22;98277.31;5089205;28;20024;-77
2023/08/01 02:39:23;;;;;;;3.42;2.20;;;;;;;23.97;50.29;98279.97;5071711;28;20495;-77
2023/08/01 02:41:49;;;;;;;3.42;2.30;;;;;;;23.94;50.42;98271.56;5054719;28;20040;-77
2023/08/01 02:44:14;;;;;;;4.40;2.08;;;;;;;23.96;50.45;98278.34;5071323;28;20483;-77
2023/08/01 02:46:39;;;;;;;3.95;2.40;;;;;;;23.95;50.04;98279.34;5071284;28;20090;-76
2023/08/01 02:49:05;;;;;;;2.92;2.40;;;;;;;24.06;50.75;98277.06;5078200;28;20077;-92
2023/08/01 02:51:30;;;;;;;4.20;2.33;;;;;;;24.25;50.24;98277.94;5091311;28;20044;-82
2023/08/01 02:53:56;;;;;;;6.88;2.35;;;;;;;24.39;49.81;98274.94;5093160;28;20036;-85
2023/08/01 02:56:21;;;;;;;5.60;2.38;;;;;;;24.56;49.58;98277.91;5092487;28;20067;-87
2023/08/01 02:58:47;;;;;;;7.35;2.30;;;;;;;24.42;48.94;98275.56;5091531;28;20368;-75
2023/08/01 03:01:13;;;;;;;6.32;2.70;;;;;;;23.96;50.22;98283.66;5091323;28;20042;-74
2023/08/01 03:03:39;;;;;;;3.38;2.45;;;;;;;23.74;51.10;98279.69;5108430;28;20039;-75
2023/08/01 03:06:04;;;;;;;6.63;2.60;;;;;;;23.64;52.34;98291.59;5091587;28;20056;-79
2023/08/01 03:08:30;;;;;;;9.10;2.28;;;;;;;23.80;51.95;98286.81;5091292;28;20429;-81
2023/08/01 03:10:55;;;;;;;3.17;2.33;;;;;;;24.05;51.41;98286.88;5108333;28;20051;-79
2023/08/01 03:13:21;;;;;;;8.70;2.50;;;;;;;24.30;50.73;98286.09;5057822;28;20028;-79
2023/08/01 03:15:47;;;;;;;8.50;2.28;;;;;;;24.54;50.06;98287.97;5074257;28;20028;-78
2023/08/01 03:18:12;;;;;;;4.88;2.45;;;;;;;24.75;49.73;98285.97;5108354;28;20043;-80
2023/08/01 03:20:37;;;;;;;7.30;2.50;;;;;;;25.17;49.03;98286.13;5091319;28;20085;-82
2023/08/01 03:23:03;;;;;;;7.00;2.78;;;;;;;25.34;48.53;98280.25;5092466;28;20130;-77
2023/08/01 03:25:29;;;;;;;4.15;2.80;;;;;;;25.48;48.40;98284.38;5090751;28;20040;-76
2023/08/01 03:27:54;;;;;;;6.68;3.40;;;;;;;25.55;48.12;98284.28;5091168;28;20024;-80
2023/08/01 03:30:20;;;;;;;4.70;2.65;;;;;;;25.60;47.62;98276.41;5074165;28;20414;-79
2023/08/01 03:32:46;;;;;;;5.70;3.00;;;;;;;25.70;47.36;98284.72;5057441;28;20494;-79
2023/08/01 03:35:13;;;;;;;4.95;2.50;;;;;;;25.94;46.96;98282.94;5056853;28;20047;-79
2023/08/01 03:37:39;;;;;;;4.28;2.70;;;;;;;26.50;45.51;98288.91;5090671;28;20037;-79
2023/08/01 03:40:08;;;;;;;6.72;3.28;;;;;;;27.04;44.33;98287.97;5074350;28;20076;-79
2023/08/01 03:42:34;;;;;;;4.25;2.97;;;;;;;27.71;42.94;98284.00;5091351;28;20028;-79
2023/08/01 03:45:00;;;;;;;4.45;2.70;;;;;;;28.32;41.52;98286.94;5076030;28;20042;-79
2023/08/01 03:47:25;;;;;;;4.07;2.75;;;;;;;28.94;40.35;98290.59;5094843;28;20036;-79
2023/08/01 03:49:51;;;;;;;3.67;2.65;;;;;;;29.52;39.30;98293.78;5094860;28;20036;-79
2023/08/01 03:52:16;;;;;;;4.57;2.85;;;;;;;29.95;38.39;98294.78;5096257;28;20540;-79
2023/08/01 03:54:42;;;;;;;2.95;2.53;;;;;;;30.44;37.31;98300.13;5096396;28;20046;-79
2023/08/01 03:57:07;;;;;;;5.30;2.67;;;;;;;30.64;37.21;98295.94;5094971;28;20028;-79
2023/08/01 03:59:33;;;;;;;5.38;2.63;;;;;;;30.23;37.61;98291.00;5111882;28;20039;-79
2023/08/01 04:01:58;;;;;;;3.08;2.72;;;;;;;30.12;37.60;98287.41;5095911;28;20057;-80
2023/08/01 04:04:24;;;;;;;6.55;2.85;;;;;;;30.51;37.04;98291.00;5096035;28;20062;-79
2023/08/01 04:06:49;;;;;;;3.83;2.80;;;;;;;30.63;37.00;98297.00;5096017;28;20060;-79
2023/08/01 04:09:14;;;;;;;4.53;2.90;;;;;;;30.77;36.57;98292.78;5095918;28;20024;-80
2023/08/01 04:11:40;;;;;;;3.40;2.78;;;;;;;30.65;37.33;98295.69;5094703;28;20113;-77
2023/08/01 04:14:05;;;;;;;4.93;2.70;;;;;;;30.57;36.99;98301.56;5094502;28;20039;-77
2023/08/01 04:16:31;;;;;;;5.32;2.72;;;;;;;30.72;36.67;98300.84;5095897;28;20487;-77
2023/08/01 04:18:57;;;;;;;3.70;2.80;;;;;;;30.94;36.62;98292.63;5111276;28;20028;-77
2023/08/01 04:21:22;;;;;;;4.50;2.42;;;;;;;31.36;36.06;98301.78;5094415;28;20111;-77
2023/08/01 04:23:48;;;;;;;4.18;2.38;;;;;;;31.43;35.50;98299.63;5077501;28;20064;-77
2023/08/01 04:26:13;;;;;;;12.30;2.85;;;;;;;31.14;35.97;98297.34;5094025;28;20043;-77
2023/08/01 04:28:39;;;;;;;4.22;2.70;;;;;;;30.98;36.45;98301.84;5094356;28;20101;-77
2023/08/01 04:31:04;;;;;;;3.13;2.25;;;;;;;31.01;36.19;98300.50;5094275;28;20024;-77
2023/08/01 04:33:30;;;;;;;14.35;2.70;;;;;;;31.08;36.98;98300.28;5093624;28;20423;-77
2023/08/01 04:35:55;;;;;;;15.20;2.70;;;;;;;31.95;35.26;98297.09;5110851;28;20032;-79
2023/08/01 04:38:21;;;;;;;7.75;2.75;;;;;;;32.66;34.04;98295.53;5095199;28;20028;-78
2023/08/01 04:40:46;;;;;;;7.03;2.60;;;;;;;33.07;33.85;98298.97;5114121;28;20048;-81
2023/08/01 04:43:13;;;;;;;18.55;2.95;;;;;;;33.95;32.74;98301.28;5095853;28;20055;-82
2023/08/01 04:45:38;;;;;;;4.75;2.72;;;;;;;35.12;30.11;98307.63;5094562;28;20416;-91
2023/08/01 04:48:04;;;;;;;4.93;2.35;;;;;;;36.01;28.44;98297.28;5095822;28;20032;-89
2023/08/01 04:50:29;;;;;;;5.00;2.25;;;;;;;36.63;27.52;98299.00;5096562;28;20024;-87
2023/08/01 04:52:55;;;;;;;4.25;2.00;;;;;;;37.27;26.60;98310.06;5095230;28;20100;-88
2023/08/01 04:55:20;;;;;;;6.55;2.35;;;;;;;38.06;25.44;98306.16;5110803;28;20039;-86
2023/08/01 04:57:46;;;;;;;2.65;1.83;;;;;;;38.77;24.27;98302.81;5093250;28;20460;-88
2023/08/01 05:00:12;;;;;;;4.22;1.85;;;;;;;39.53;23.22;98318.19;5093553;28;20111;-87
2023/08/01 05:02:37;;;;;;;4.28;1.65;;;;;;;40.06;22.39;98312.75;5110602;28;20112;-89
2023/08/01 05:05:03;;;;;;;5.97;1.88;;;;;;;40.61;22.04;98313.97;5093824;28;20052;-89
2023/08/01 05:07:29;;;;;;;15.18;2.10;;;;;;;41.15;21.56;98310.72;5095390;28;20127;-91
2023/08/01 05:09:55;;;;;;;11.73;2.00;;;;;;;41.32;20.93;98315.34;5096139;28;20056;-88
2023/08/01 05:12:20;;;;;;;7.88;2.08;;;;;;;41.83;20.72;98315.31;5111166;28;20027;-80
2023/08/01 05:14:46;;;;;;;16.00;2.33;;;;;;;42.43;20.11;98322.22;5109758;28;20044;-82
2023/08/01 05:17:11;;;;;;;7.57;1.90;;;;;;;43.09;19.77;98328.75;5109294;28;20040;-82
2023/08/01 05:19:37;;;;;;;10.40;1.60;;;;;;;43.71;18.94;98332.28;5109551;28;20020;-82
2023/08/01 05:22:04;;;;;;;6.90;1.60;;;;;;;44.16;19.22;98332.38;5092344;28;20044;-82
2023/08/01 05:24:29;;;;;;;;;;;;;;;44.44;18.45;98335.13;5093153;28;20032;-86
2023/08/01 05:26:54;;;;;;;5.20;1.50;;;;;;;44.99;18.14;98329.84;5094125;28;20272;-81
2023/08/01 05:29:20;;;;;;;6.27;1.53;;;;;;;45.41;18.04;98329.28;5093063;28;20027;-83
2023/08/01 05:31:45;;;;;;;11.67;1.77;;;;;;;45.74;17.61;98327.22;5076037;28;20042;-80
2023/08/01 05:34:11;;;;;;;4.27;1.50;;;;;;;45.99;17.31;98336.84;5093160;28;20028;-82
2023/08/01 05:36:37;;;;;;;7.80;1.50;;;;;;;46.21;17.30;98329.00;5094055;28;20584;-82
2023/08/01 05:39:03;;;;;;;5.80;1.50;;;;;;;46.24;16.74;98336.56;5093280;28;20032;-86
2023/08/01 05:41:29;;;;;;;5.60;1.60;;;;;;;46.17;16.22;98325.41;5093001;28;20020;-79
2023/08/01 05:43:54;;;;;;;11.95;2.10;;;;;;;45.61;16.83;98332.06;5093532;28;20030;-79
2023/08/01 05:46:20;;;;;;;7.43;1.67;;;;;;;45.67;17.15;98330.63;5059300;28;20021;-80
2023/08/01 05:48:45;;;;;;;6.20;1.50;;;;;;;45.80;16.77;98328.56;5092450;28;20024;-79
2023/08/01 05:51:11;;;;;;;4.70;1.80;;;;;;;45.89;16.33;98333.88;5092815;28;20031;-84
2023/08/01 05:53:36;;;;;;;5.50;1.83;;;;;;;45.95;16.46;98327.69;5109711;28;20036;-75
2023/08/01 05:56:02;;;;;;;6.27;1.70;;;;;;;46.06;16.28;98325.16;5109842;28;20036;-77
2023/08/01 05:58:27;;;;;;;7.83;1.90;;;;;;;46.19;16.67;98321.09;5109097;28;20016;-79
2023/08/01 06:00:53;;;;;;;6.13;1.60;;;;;;;46.34;16.14;98318.63;5092362;28;20028;-78
2023/08/01 06:03:18;;;;;;;9.80;1.93;;;;;;;46.44;15.97;98329.03;5092296;28;20411;-79
2023/08/01 06:05:45;;;;;;;6.97;2.13;;;;;;;46.55;16.37;98327.28;5074616;28;20079;-76
2023/08/01 06:08:10;;;;;;;7.95;1.90;;;;;;;46.74;16.08;98320.91;5107945;28;20127;-85
2023/08/01 06:10:36;;;;;;;6.60;2.20;;;;;;;46.87;16.20;98317.97;5091960;28;20116;-75
2023/08/01 06:13:01;;;;;;;9.40;2.03;;;;;;;46.88;15.77;98316.81;5091940;28;20044;-73
2023/08/01 06:15:27;;;;;;;11.37;2.70;;;;;;;46.44;16.61;98315.25;5090850;28;20411;-73
2023/08/01 06:17:52;;;;;;;16.20;3.07;;;;;;;46.60;16.74;98308.84;5101068;28;20113;-73
2023/08/01 06:20:18;;;;;;;11.03;2.73;;;;;;;46.89;16.88;98310.09;5058401;28;20040;-72
2023/08/01 06:22:43;;;;;;;10.30;2.77;;;;;;;47.08;16.72;98307.28;5073629;28;20043;-70
2023/08/01 06:25:09;;;;;;;8.00;2.70;;;;;;;47.13;16.96;98303.41;5087986;28;20020;-70
2023/08/01 06:27:35;;;;;;;10.37;2.90;;;;;;;47.25;16.88;98311.44;5046645;28;20485;-70
2023/08/01 06:30:00;;;;;;;10.50;2.80;;;;;;;47.25;16.96;98311.44;5071521;28;20031;-73
2023/08/01 06:32:26;;;;;;;6.82;2.33;;;;;;;47.22;17.41;98309.44;5070869;28;20040;-72
2023/08/01 06:34:51;;;;;;;8.07;2.50;;;;;;;47.21;17.12;98299.56;5066528;28;20032;-76
2023/08/01 06:37:17;;;;;;;11.00;2.73;;;;;;;47.10;17.17;98299.41;5083955;28;20016;-75
2023/08/01 06:39:42;;;;;;;8.30;2.27;;;;;;;46.90;17.78;98306.97;5090921;28;20407;-73
2023/08/01 06:42:08;;;;;;;6.77;2.30;;;;;;;46.78;17.44;98304.41;5073925;28;20507;-74
2023/08/01 06:44:34;;;;;;;6.57;2.50;;;;;;;46.73;17.47;98297.25;5075105;28;20165;-73
2023/08/01 06:46:59;;;;;;;6.00;2.40;;;;;;;46.65;17.92;98287.22;5074257;28;20044;-72
2023/08/01 06:49:25;;;;;;;7.83;2.37;;;;;;;46.70;18.33;98288.88;5074657;28;20402;-76
2023/08/01 06:51:50;;;;;;;8.03;2.50;;;;;;;46.80;17.79;98291.03;5091345;28;20039;-76
2023/08/01 06:54:16;;;;;;;7.80;2.30;;;;;;;46.77;17.88;98297.28;5091265;28;20055;-75
2023/08/01 06:56:47;;;;;;;6.27;2.40;;;;;;;46.79;17.82;98300.47;5090767;28;20540;-76
2023/08/01 06:59:15;;;;;;;7.25;2.40;;;;;;;46.70;17.90;98299.94;5057927;28;20032;-75
2023/08/01 07:01:43;;;;;;;5.38;2.47;;;;;;;46.68;18.15;98299.50;5074562;28;20097;-76
2023/08/01 07:04:09;;;;;;;5.70;2.30;;;;;;;46.59;17.82;98299.75;5073955;28;20032;-77
2023/08/01 07:06:35;;;;;;;5.93;2.13;;;;;;;46.49;18.42;98303.09;5074129;28;20024;-76
2023/08/01 07:09:00;;;;;;;4.27;2.30;;;;;;;46.29;18.22;98300.41;5090880;28;20074;-75
2023/08/01 07:11:26;;;;;;;6.40;2.40;;;;;;;46.00;18.58;98290.75;5092131;28;20402;-75
2023/08/01 07:13:51;;;;;;;6.33;2.20;;;;;;;45.91;18.36;98292.94;5092521;28;20032;-77
2023/08/01 07:16:17;;;;;;;5.07;2.47;;;;;;;45.72;18.53;98304.75;5074393;28;20034;-80
2023/08/01 07:18:42;;;;;;;5.90;2.40;;;;;;;45.69;18.70;98304.31;5057619;28;20200;-77
2023/08/01 07:21:08;;;;;;;3.10;2.40;;;;;;;45.65;18.91;98302.63;5080752;28;20034;-75
2023/08/01 07:23:34;;;;;;;5.40;2.30;;;;;;;45.62;18.58;98303.38;5081109;28;20032;-77
2023/08/01 07:25:59;;;;;;;3.22;2.20;;;;;;;45.62;18.53;98300.59;5080735;28;20119;-75
2023/08/01 07:28:25;;;;;;;7.07;2.50;;;;;;;45.59;18.87;98302.13;5098130;28;20024;-75
2023/08/01 07:31:04;;;;;;;3.67;2.27;;;;;;;45.46;18.64;98295.94;5080730;28;20078;-76
2023/08/01 07:33:30;;;;;;;3.30;2.40;;;;;;;45.50;18.66;98293.28;5097967;28;20031;-75
2023/08/01 07:35:56;;;;;;;5.43;2.37;;;;;;;45.47;19.21;98300.31;5080459;28;20410;-75
2023/08/01 07:38:21;;;;;;;3.87;2.17;;;;;;;45.42;18.78;98300.59;5098640;28;20031;-75
2023/08/01 07:40:47;;;;;;;3.37;2.17;;;;;;;45.37;19.02;98300.81;5097604;28;20035;-75
2023/08/01 07:43:12;;;;;;;3.20;2.20;;;;;;;45.28;19.04;98300.25;5081462;28;20031;-74
2023/08/01 07:45:38;;;;;;;4.10;2.23;;;;;;;45.29;19.06;98291.59;5064102;28;20093;-75
2023/08/01 07:48:04;;;;;;;3.20;2.30;;;;;;;45.31;19.14;98307.78;5063704;28;20120;-75
2023/08/01 07:50:29;;;;;;;3.15;2.35;;;;;;;45.34;18.50;98296.03;5080851;28;20517;-75
2023/08/01 07:52:55;;;;;;;4.13;2.20;;;;;;;45.37;19.27;98292.56;5063896;28;20036;-74
2023/08/01 07:55:21;;;;;;;2.97;2.17;;;;;;;45.41;18.84;98299.00;5080358;28;20036;-78
2023/08/01 07:57:49;;;;;;;4.00;2.33;;;;;;;45.46;18.94;98295.16;5064062;28;20112;-76
2023/08/01 08:00:15;;;;;;;4.05;2.00;;;;;;;45.49;19.18;98289.72;5097617;28;20024;-76
2023/08/01 08:02:44;;;;;;;4.50;2.10;;;;;;;45.48;18.90;98293.66;5097618;28;20035;-75
2023/08/01 08:05:10;;;;;;;3.95;1.98;;;;;;;45.48;18.57;98292.81;5097201;28;20293;-77
2023/08/01 08:07:38;;;;;;;3.47;2.23;;;;;;;45.45;18.30;98291.59;5063970;28;20036;-76
2023/08/01 08:10:05;;;;;;;3.95;2.13;;;;;;;45.41;18.94;98287.19;5063899;28;20028;-76
2023/08/01 08:12:30;;;;;;;;;;;;;;;45.28;18.60;98292.00;5097824;28;20058;-74
2023/08/01 08:14:56;;;;;;;4.77;2.10;;;;;;;45.27;18.96;98284.88;5080313;28;19912;-75
2023/08/01 08:17:21;;;;;;;4.03;2.20;;;;;;;45.23;18.51;98292.25;5080448;28;20028;-75
2023/08/01 08:19:47;;;;;;;3.13;1.80;;;;;;;45.15;18.35;98288.53;5079960;28;20060;-75
2023/08/01 08:22:12;;;;;;;3.57;2.00;;;;;;;45.06;18.83;98287.94;5080614;28;20036;-77
2023/08/01 08:24:38;;;;;;;4.30;2.23;;;;;;;44.97;19.07;98275.13;5063999;28;20462;-74
2023/08/01 08:27:04;;;;;;;3.93;2.17;;;;;;;44.96;19.32;98279.03;5080533;28;20039;-76
2023/08/01 08:29:30;;;;;;;3.00;2.23;;;;;;;44.86;18.74;98274.06;5096947;28;20082;-77
2023/08/01 08:31:56;;;;;;;4.28;2.30;;;;;;;44.79;18.39;98277.47;5094432;28;20114;-77
2023/08/01 08:34:21;;;;;;;2.27;1.80;;;;;;;44.73;18.61;98280.84;5076486;28;20036;-75
2023/08/01 08:36:47;;;;;;;2.63;1.90;;;;;;;44.65;18.64;98273.56;5076044;28;20059;-76
2023/08/01 08:39:12;;;;;;;2.53;1.67;;;;;;;44.04;19.13;98273.50;5093821;28;20123;-75
2023/08/01 08:41:39;;;;;;;2.43;1.80;;;;;;;43.61;19.51;98277.78;5093646;28;20028;-76
2023/08/01 08:44:07;;;;;;;3.70;1.83;;;;;;;43.33;19.67;98274.97;5093911;28;20028;-76
2023/08/01 08:46:32;;;;;;;3.38;1.88;;;;;;;43.42;19.72;98272.91;5076600;28;20126;-75
2023/08/01 08:48:58;;;;;;;3.33;2.20;;;;;;;43.39;19.93;98273.59;5059954;28;20112;-75
2023/08/01 08:51:26;;;;;;;4.27;1.70;;;;;;;43.32;20.06;98268.69;5059593;28;20036;-76
2023/08/01 08:53:53;;;;;;;3.72;2.00;;;;;;;43.30;19.80;98265.50;5076453;28;20058;-74
2023/08/01 08:56:18;;;;;;;3.70;1.95;;;;;;;43.23;19.59;98259.75;5076890;28;20107;-76
2023/08/01 08:58:44;;;;;;;2.33;1.97;;;;;;;43.21;19.72;98256.56;5059844;28;20482;-75
2023/08/01 09:01:09;;;;;;;2.43;1.73;;;;;;;43.16;19.78;98256.81;5076550;28;20024;-76
2023/08/01 09:03:36;;;;;;;2.60;1.90;;;;;;;43.12;19.77;98262.19;5076346;28;20028;-75
2023/08/01 09:06:07;;;;;;;3.83;2.08;;;;;;;43.07;20.00;98254.19;5094316;28;20055;-75
2023/08/01 09:08:34;;;;;;;2.10;1.60;;;;;;;43.00;20.08;98249.28;5092360;28;20040;-75
2023/08/01 09:11:00;;;;;;;2.92;2.00;;;;;;;42.46;20.55;98244.75;5076413;28;20493;-76
2023/08/01 09:13:25;;;;;;;2.97;2.27;;;;;;;41.99;21.33;98236.84;5059699;28;20119;-74
2023/08/01 09:15:51;;;;;;;3.93;1.90;;;;;;;42.12;20.81;98243.97;5076864;28;20052;-74
2023/08/01 09:18:16;;;;;;;2.73;1.93;;;;;;;42.11;20.84;98245.13;5059551;28;20498;-74
2023/08/01 09:20:43;;;;;;;5.73;2.10;;;;;;;42.06;21.11;98245.31;5093337;28;20040;-76
2023/08/01 09:23:09;;;;;;;3.80;2.28;;;;;;;42.05;20.68;98246.47;5093065;28;20032;-75
2023/08/01 09:25:34;;;;;;;2.53;2.05;;;;;;;42.05;20.90;98245.66;5075937;28;20055;-74
2023/08/01 09:28:00;;;;;;;2.70;1.97;;;;;;;42.03;21.00;98245.97;5059486;28;20486;-75
2023/08/01 09:30:27;;;;;;;3.83;2.17;;;;;;;42.04;21.04;98242.13;5075714;28;20422;-77
2023/08/01 09:32:54;;;;;;;4.38;2.20;;;;;;;41.98;20.95;98243.47;5059775;28;20163;-74
2023/08/01 09:35:19;;;;;;;3.78;1.98;;;;;;;41.69;21.34;98239.66;5092558;28;20037;-74
2023/08/01 09:37:45;;;;;;;2.63;2.20;;;;;;;41.53;21.37;98236.75;5092268;28;20031;-74
2023/08/01 09:40:10;;;;;;;2.93;1.97;;;;;;;41.20;21.75;98231.16;5075786;28;20028;-74
2023/08/01 09:42:40;;;;;;;2.95;2.25;;;;;;;41.14;21.78;98230.53;5074765;28;20135;-75
2023/08/01 09:45:15;;;;;;;3.03;2.10;;;;;;;41.01;21.65;98215.19;5092478;28;20099;-75
2023/08/01 09:47:44;;;;;;;2.67;2.00;;;;;;;40.90;21.99;98222.97;5092975;28;20034;-76
2023/08/01 09:50:10;;;;;;;3.42;2.05;;;;;;;40.74;22.35;98228.19;5075614;28;20101;-76
2023/08/01 09:52:36;;;;;;;;;;;;;;;40.68;22.21;98224.81;5093502;28;20387;-76
2023/08/01 09:55:01;;;;;;;3.37;2.27;;;;;;;40.56;22.29;98221.19;5092418;28;19908;-75
2023/08/01 09:57:29;;;;;;;4.18;2.20;;;;;;;40.50;22.13;98218.63;5092600;28;20051;-76
2023/08/01 09:59:58;;;;;;;4.68;2.30;;;;;;;40.37;22.48;98218.81;5092241;28;20024;-75
2023/08/01 10:02:24;;;;;;;4.85;2.28;;;;;;;40.32;22.55;98200.66;5075180;28;20197;-75
2023/08/01 10:04:50;;;;;;;4.10;2.15;;;;;;;40.17;22.94;98188.31;5092340;28;20123;-76
2023/08/01 10:07:17;;;;;;;4.07;2.20;;;;;;;40.05;23.04;98197.19;5075239;28;20415;-75
2023/08/01 10:09:43;;;;;;;3.17;2.17;;;;;;;39.80;23.35;98188.72;5075137;28;20449;-75
2023/08/01 10:12:08;;;;;;;5.70;2.28;;;;;;;39.50;23.43;98195.13;5058498;28;20075;-74
2023/08/01 10:14:34;;;;;;;4.90;2.40;;;;;;;39.22;23.86;98181.75;5075193;28;20024;-76
2023/08/01 10:16:59;;;;;;;3.20;2.20;;;;;;;38.95;24.37;98196.47;5074818;28;20082;-75
2023/08/01 10:19:26;;;;;;;2.50;2.17;;;;;;;38.84;23.93;98199.50;5074311;28;20028;-77
2023/08/01 10:21:51;;;;;;;2.70;2.15;;;;;;;38.77;24.00;98190.97;5075211;28;20391;-76
2023/08/01 10:24:17;;;;;;;4.90;2.30;;;;;;;38.64;24.17;98186.47;5075345;28;20024;-75
2023/08/01 10:26:45;;;;;;;6.00;2.17;;;;;;;38.53;24.40;98183.19;5091854;28;20072;-75
2023/08/01 10:29:11;;;;;;;3.53;2.45;;;;;;;38.51;24.46;98188.94;5091014;28;20046;-75
2023/08/01 10:31:36;;;;;;;5.13;2.25;;;;;;;38.47;24.43;98185.22;5057604;28;20044;-75
2023/08/01 10:34:06;;;;;;;2.63;2.15;;;;;;;38.43;24.78;98187.00;5074982;28;20024;-77
2023/08/01 10:36:32;;;;;;;3.70;2.40;;;;;;;38.43;24.77;98176.09;5091606;28;20032;-75
2023/08/01 10:38:59;;;;;;;3.28;2.30;;;;;;;38.41;24.85;98172.06;5091509;28;20056;-74
2023/08/01 10:41:32;;;;;;;3.37;2.40;;;;;;;38.18;24.86;98177.56;5091118;28;20044;-76
2023/08/01 10:44:24;;;;;;;3.30;2.20;;;;;;;38.16;25.36;98168.88;5091328;28;20065;-76
2023/08/01 10:46:59;;;;;;;2.70;2.30;;;;;;;38.09;24.96;98158.41;5073213;28;20513;-76
2023/08/01 10:49:40;;;;;;;2.72;2.17;;;;;;;38.01;25.20;98149.06;5074347;28;20512;-77
2023/08/01 10:52:29;;;;;;;2.90;2.40;;;;;;;37.88;25.09;98152.69;5074127;28;20035;-74
2023/08/01 10:54:59;;;;;;;4.03;2.38;;;;;;;37.81;25.33;98141.44;5074529;28;20502;-76
2023/08/01 10:57:25;;;;;;;2.47;1.92;;;;;;;37.70;25.42;98131.91;5091348;28;20060;-74
2023/08/01 10:59:50;;;;;;;2.92;2.33;;;;;;;37.63;25.72;98137.78;5074470;28;20116;-75
2023/08/01 11:02:23;;;;;;;3.20;2.30;;;;;;;37.51;25.60;98137.53;5074449;28;20040;-76
2023/08/01 11:05:05;;;;;;;3.42;2.28;;;;;;;37.35;25.95;98123.47;5074072;28;20059;-76
2023/08/01 11:07:30;;;;;;;2.88;2.17;;;;;;;37.35;25.57;98127.00;5075169;28;20028;-74
2023/08/01 11:10:10;;;;;;;2.88;2.30;;;;;;;37.22;25.81;98125.94;5074197;28;20111;-75
2023/08/01 11:12:37;;;;;;;5.03;2.55;;;;;;;37.17;26.03;98117.88;5073733;28;20096;-76
2023/08/01 11:15:04;;;;;;;3.17;2.40;;;;;;;37.10;26.02;98121.03;5090851;28;20032;-76
2023/08/01 11:17:29;;;;;;;2.58;2.25;;;;;;;37.06;26.20;98116.50;5090976;28;20032;-75
2023/08/01 11:20:04;;;;;;;3.60;2.28;;;;;;;37.06;26.39;98105.63;5073970;28;20028;-74
2023/08/01 11:22:31;;;;;;;3.13;1.98;;;;;;;37.02;26.93;98104.59;5074034;28;20036;-76
2023/08/01 11:24:56;;;;;;;3.25;2.60;;;;;;;36.90;26.61;98099.72;5090256;28;20043;-75
2023/08/01 11:27:21;;;;;;;3.35;2.30;;;;;;;36.88;26.64;98094.59;5073459;28;20036;-75
2023/08/01 11:29:47;;;;;;;3.38;2.42;;;;;;;36.83;26.52;98102.03;5058139;28;20035;-76